Burton upon Stather, United Kingdom
Current Conditions -  °F | °C
As of 2:20 PM on Thursday 30 Oct 2014 (Local Time) from EGNJ Reporting Station
Haze Haze  
Wind Chill: 63°   Ceiling: 3400
Heat Index: 63°   Visibility: 3mi
Dew Point: 59°   Wind: 12mph
Humidity: 88%   Direction: 200°SSW
Pressure: 30"   Gusts: NA
Location:  53.65°N, 0.68°W
Report Text: EGNJ 301420Z 20010KT 5000 HZ FEW012 BKN034 17/15 Q1016
Loading
Personal Weather Stations






























Interactive Weather Map
Tropical Storm Tracking
New forecast layout! Learn more

10-Day Weather Forecast

Advertisements
Track Severe Weather on mobile